Terminal Aerodrome Forecast
Issued by NWS Miami, FL

Home | Current Version | Previous Version | Text Only | Print | Product List | Glossary On
Versions: 1 2 3 4 5 6 7 8 9 10 11 12 13 14 15 16 17 18 19 20 21 22 23 24 25 26 27 28 29 30 31 32 33 34
000
FTUS42 KMFL 231151
TAFAPF
TAF
KAPF 231151Z 2312/2412 26017G26KT P6SM VCSH SCT025 BKN050 BKN100
      TEMPO 2312/2314 VRB20G40KT 4SM SHRA SCT015 BKN025 OVC060
     FM231800 29020G30KT P6SM SCT030 SCT080 BKN250
     FM240000 29012G20KT P6SM FEW035 SCT100 SCT250=

USA.gov is the U.S. government's official web portal to all federal, state and local government web resources and services.